METAR Data
IDs: Format: Raw Decoded Include TAF

Data at: 2058 UTC 18 Sep 2018

KDZB 182055Z AUTO 17007KT 10SM SCT049 33/18 A2995 RMK AO2 T03330183
KDZB 182035Z AUTO 18007KT 10SM BKN049 33/19 A2996 RMK AO2 T03280189
KDZB 182015Z AUTO 16006KT 10SM SCT049 SCT055 33/19 A2997 RMK AO2 T03290194
KDZB 181955Z AUTO 17005KT 10SM SCT049 33/19 A2998 RMK AO2 T03310193
KDZB 181935Z AUTO 18006KT 10SM SCT045 SCT050 32/19 A2999 RMK AO2 T03240188
KDZB 181915Z AUTO 18007KT 160V230 10SM SCT045 SCT050 32/20 A2999 RMK AO2 T03200200
KDZB 181855Z AUTO 14005KT 7SM BKN043 BKN048 32/20 A3000 RMK AO2 T03210196
KDZB 181835Z AUTO 00000KT 10SM SCT041 32/20 A3001 RMK AO2 T03180199
KDZB 181815Z AUTO 20005KT 10SM BKN041 32/20 A3002 RMK AO2 T03160202
KDZB 181755Z AUTO 18004KT 10SM CLR 32/20 A3003 RMK AO2 T03200204 10320 20228
KDZB 181735Z AUTO 16007KT 10SM SCT038 31/20 A3004 RMK AO2 T03090199
KDZB 181715Z AUTO 17007KT 10SM SCT036 31/20 A3004 RMK AO2 T03140204
KDZB 181655Z AUTO 14004KT 10SM SCT036 31/20 A3005 RMK AO2 T03060202
KDZB 181635Z AUTO 00000KT 10SM SCT032 30/21 A3006 RMK AO2 T03000210
KDZB 181615Z AUTO 15003KT 10SM CLR 30/21 A3006 RMK AO2 T02990210
KDZB 181555Z AUTO 18005KT 10SM CLR 29/21 A3006 RMK AO2 T02940210
KDZB 181535Z AUTO 00000KT 10SM SCT023 29/21 A3006 RMK AO2 T02870214
KDZB 181515Z AUTO 23005KT 10SM SCT021 28/22 A3006 RMK AO2 T02830215
KDZB 181455Z AUTO 20005KT 10SM CLR 28/22 A3005 RMK AO2 T02780217
KDZB 181435Z AUTO 22003KT 10SM CLR 27/22 A3005 RMK AO2 T02660217
KDZB 181415Z AUTO 00000KT 10SM CLR 25/22 A3006 RMK AO2 T02540220
KDZB 181355Z AUTO 00000KT 10SM CLR 25/22 A3006 RMK AO2 T02450218
KDZB 181335Z AUTO 00000KT 10SM CLR 24/22 A3006 RMK AO2 T02410216
KDZB 181315Z AUTO 00000KT 10SM CLR 24/22 A3005 RMK AO2 T02400217
KDZB 181255Z AUTO 25003KT 10SM CLR 23/22 A3005 RMK AO2 T02330217
KDZB 181235Z AUTO 00000KT 10SM CLR 23/22 A3004 RMK AO2 T02300216
KDZB 181215Z AUTO 00000KT 10SM CLR 23/21 A3004 RMK AO2 T02280213
KDZB 181155Z AUTO 00000KT 10SM CLR 23/22 A3004 RMK AO2 T02290216 10255 20223
KDZB 181135Z AUTO 00000KT 10SM CLR 23/21 A3003 RMK AO2 T02260212
KDZB 181115Z AUTO 00000KT 10SM CLR 23/21 A3003 RMK AO2 T02260212
KDZB 181055Z AUTO 00000KT 10SM CLR 23/21 A3003 RMK AO2 T02250210
KDZB 181035Z AUTO 00000KT 10SM CLR 22/21 A3002 RMK AO2 T02230210
KDZB 181015Z AUTO 00000KT 10SM CLR 23/21 A3002 RMK AO2 T02250210
KDZB 180955Z AUTO 00000KT 10SM CLR 23/21 A3002 RMK AO2 T02280210
KDZB 180935Z AUTO 00000KT 10SM CLR 23/21 A3001 RMK AO2 T02310213
KDZB 180915Z AUTO 00000KT 10SM CLR 23/21 A3001 RMK AO2 T02300210
KDZB 180855Z AUTO 00000KT 10SM CLR 23/21 A3001 RMK AO2 T02300207
KDZB 180835Z AUTO 00000KT 10SM CLR 24/21 A3001 RMK AO2 T02360207
KDZB 180815Z AUTO 19005KT 10SM CLR 24/21 A3001 RMK AO2 T02370206
KDZB 180755Z AUTO 18004KT 10SM CLR 24/21 A3001 RMK AO2 T02390206
KDZB 180735Z AUTO 18004KT 10SM CLR 24/21 A3001 RMK AO2 T02410206
KDZB 180715Z AUTO 18004KT 10SM CLR 24/21 A3001 RMK AO2 T02420205
KDZB 180655Z AUTO 18004KT 10SM SCT110 25/21 A3001 RMK AO2 T02450205
KDZB 180635Z AUTO 18005KT 10SM OVC110 25/21 A3001 RMK AO2 T02500205
KDZB 180615Z AUTO 19006KT 10SM OVC110 25/21 A3001 RMK AO2 T02520205
KDZB 180555Z AUTO 19004KT 10SM OVC110 26/21 A3002 RMK AO2 T02560205 10306 20253 403260195
KDZB 180535Z AUTO 19004KT 10SM OVC100 26/21 A3002 RMK AO2 T02560205
KDZB 180515Z AUTO 18006KT 10SM OVC090 26/20 A3002 RMK AO2 T02600203
KDZB 180455Z AUTO 17005KT 10SM OVC090 26/20 A3002 RMK AO2 T02560201
KDZB 180435Z AUTO 17004KT 10SM BKN090 26/20 A3002 RMK AO2 T02550200
KDZB 180415Z AUTO 18004KT 10SM BKN100 26/20 A3002 RMK AO2 T02560200
KDZB 180355Z AUTO 19004KT 10SM OVC100 26/20 A3002 RMK AO2 T02590202
KDZB 180335Z AUTO 17003KT 10SM OVC090 26/20 A3002 RMK AO2 T02570202
KDZB 180315Z AUTO 16003KT 10SM BKN090 26/20 A3002 RMK AO2 T02560202
KDZB 180255Z AUTO 00000KT 10SM SCT090 26/21 A3001 RMK AO2 T02560205
KDZB 180235Z AUTO 00000KT 10SM CLR 26/21 A3001 RMK AO2 T02570205
KDZB 180215Z AUTO 17003KT 10SM CLR 26/20 A3000 RMK AO2 T02610204
KDZB 180155Z AUTO 00000KT 10SM CLR 26/21 A2999 RMK AO2 T02610209
KDZB 180135Z AUTO 00000KT 10SM CLR 27/21 A2998 RMK AO2 T02650208
KDZB 180115Z AUTO 00000KT 10SM CLR 27/21 A2998 RMK AO2 T02710206
KDZB 180055Z AUTO 00000KT 10SM CLR 28/20 A2997 RMK AO2 T02790204
KDZB 180035Z AUTO 00000KT 10SM CLR 29/20 A2997 RMK AO2 T02870201
KDZB 180015Z AUTO 00000KT 10SM CLR 30/20 A2997 RMK AO2 T03000198
KDZB 172355Z AUTO 14003KT 10SM CLR 31/19 A2997 RMK AO2 T03070191 10326 20300
KDZB 172335Z AUTO 13003KT 10SM CLR 31/19 A2996 RMK AO2 T03110192
KDZB 172315Z AUTO 00000KT 10SM CLR 31/19 A2996 RMK AO2 T03070190
KDZB 172255Z AUTO 18003KT 10SM CLR 32/18 A2996 RMK AO2 T03160183
KDZB 172235Z AUTO 18004KT 10SM CLR 32/18 A2996 RMK AO2 LTG DSNT W T03190184
KDZB 172215Z AUTO 16005KT 10SM SCT050 32/19 A2996 RMK AO2 LTG DSNT S T03160188
KDZB 172155Z AUTO 14004KT 10SM SCT050 32/18 A2996 RMK AO2 T03220184
KDZB 172135Z AUTO 15004KT 10SM SCT050 32/19 A2997 RMK AO2 T03220186
KDZB 172115Z AUTO 16005KT 10SM SCT050 32/18 A2998 RMK AO2 T03220183
KDZB 172055Z AUTO 18005KT 10SM SCT050 32/18 A2998 RMK AO2 T03180182
KDZB 172035Z AUTO 17007KT 10SM CLR 32/19 A2999 RMK AO2 T03240186
KDZB 172015Z AUTO 17006KT 10SM SCT120 32/19 A2999 RMK AO2 T03150191
KDZB 171955Z AUTO 19006KT 10SM BKN110 31/19 A3000 RMK AO2 T03130185
KDZB 171935Z AUTO 19006KT 10SM SCT110 31/19 A3001 RMK AO2 T03120188
KDZB 171915Z AUTO 25005KT 10SM SCT045 32/19 A3001 RMK AO2 T03160191
KDZB 171855Z AUTO 16005KT 10SM SCT042 31/20 A3002 RMK AO2 T03100196
KDZB 171835Z AUTO 19004KT 10SM SCT040 31/20 A3003 RMK AO2 T03100203
KDZB 171815Z AUTO 00000KT 10SM SCT036 SCT043 31/20 A3003 RMK AO2 T03080199
KDZB 171755Z AUTO 18003KT 10SM BKN033 BKN043 30/21 A3004 RMK AO2 T02990208 10300 20195
KDZB 171735Z AUTO 00000KT 10SM SCT031 SCT036 30/22 A3004 RMK AO2 T02950216
KDZB 171715Z AUTO 17004KT 10SM SCT027 SCT033 30/22 A3005 RMK AO2 T02950222
KDZB 171655Z AUTO 16003KT 10SM SCT025 29/22 A3006 RMK AO2 T02900218
KDZB 171635Z AUTO 21004KT 10SM SCT014 SCT021 28/22 A3006 RMK AO2 T02820219
KDZB 171615Z AUTO 00000KT 10SM SCT014 SCT021 27/22 A3006 RMK AO2 T02720216
KDZB 171555Z AUTO 00000KT 10SM CLR 25/23 A3006 RMK AO2 T02520229
KDZB 171535Z AUTO 36003KT 10SM CLR 26/22 A3006 RMK AO2 T02580224
KDZB 171515Z AUTO 00000KT 10SM CLR 26/22 A3005 RMK AO2 T02610217
KDZB 171455Z AUTO 00000KT 10SM CLR 25/21 A3005 RMK AO2 T02540213
KDZB 171435Z AUTO 00000KT 10SM CLR 24/22 A3004 RMK AO2 T02440217
KDZB 171415Z AUTO 00000KT 10SM CLR 23/21 A3003 RMK AO2 T02340213
KDZB 171355Z AUTO 00000KT 10SM CLR 23/21 A3003 RMK AO2 T02260213
KDZB 171335Z AUTO 00000KT 10SM CLR 22/21 A3003 RMK AO2 T02160207
KDZB 171315Z AUTO 00000KT 10SM CLR 21/20 A3003 RMK AO2 T02070200
KDZB 171255Z AUTO 00000KT 10SM CLR 20/19 A3003 RMK AO2 T02000193
KDZB 171235Z AUTO 00000KT 10SM CLR 20/19 A3003 RMK AO2 T01950188
KDZB 171215Z AUTO 00000KT 10SM CLR 20/19 A3002 RMK AO2 T01950187
KDZB 171155Z AUTO 00000KT 10SM CLR 20/19 A3002 RMK AO2 60001 70048 T01980191 10219 20197
KDZB 171135Z AUTO 00000KT 10SM CLR 20/19 A3002 RMK AO2 T01970190
KDZB 171115Z AUTO 00000KT 10SM CLR 20/19 A3001 RMK AO2 T02000192
KDZB 171055Z AUTO 00000KT 10SM CLR 20/19 A3001 RMK AO2 P0001 T01980191
KDZB 171035Z AUTO 00000KT 10SM CLR 20/19 A3000 RMK AO2 T02000192
KDZB 171015Z AUTO 00000KT 10SM CLR 20/20 A3000 RMK AO2 T02010195
KDZB 170955Z AUTO 00000KT 10SM CLR 20/20 A3000 RMK AO2 T02020195
KDZB 170935Z AUTO 00000KT 10SM CLR 20/20 A3000 RMK AO2 T02030196
KDZB 170915Z AUTO 00000KT 10SM CLR 21/20 A2999 RMK AO2 T02050198